Time,TemperatureF,DewpointF,PressureIn,WindDirection,WindDirectionDegrees,WindSpeedMPH,WindSpeedGustMPH,Humidity,HourlyPrecipIn,Conditions,Clouds,dailyrainin,SolarRadiationWatts/m^2,SoftwareType,DateUTC
2013-03-29 00:02:00,46.0,44.0,-100.00,SE,135,0.0,0.0,91,0.00,,,-99.99,6.000000,,2013-03-29 07:02:00,
2013-03-29 00:11:00,46.0,44.0,-100.00,SE,135,0.0,0.0,91,0.00,,,-99.99,6.000000,,2013-03-29 07:11:00,
2013-03-29 00:32:00,47.0,45.0,-100.00,NE,47,0.0,0.0,93,0.00,,,-99.99,6.000000,,2013-03-29 07:32:00,
2013-03-29 00:42:00,47.0,45.0,-100.00,NE,47,0.0,0.0,93,0.00,,,-99.99,6.000000,,2013-03-29 07:42:00,
2013-03-29 00:52:00,47.0,45.0,-100.00,NE,47,0.0,0.0,93,0.00,,,-99.99,6.000000,,2013-03-29 07:52:00,
2013-03-29 01:02:00,47.0,45.0,-100.00,NE,47,0.0,0.0,93,0.00,,,-99.99,6.000000,,2013-03-29 08:02:00,
2013-03-29 01:12:00,47.0,45.0,-100.00,NE,47,0.0,0.0,93,0.00,,,-99.99,6.000000,,2013-03-29 08:12:00,
2013-03-29 01:32:00,46.0,45.0,-100.00,North,8,0.0,0.0,95,0.00,,,-99.99,6.000000,,2013-03-29 08:32:00,
2013-03-29 01:42:00,46.0,45.0,-100.00,North,8,0.0,0.0,95,0.00,,,-99.99,6.000000,,2013-03-29 08:42:00,
2013-03-29 01:52:00,46.0,45.0,-100.00,North,8,0.0,0.0,95,0.00,,,-99.99,6.000000,,2013-03-29 08:52:00,
2013-03-29 02:02:00,46.0,45.0,-100.00,North,8,0.0,0.0,95,0.00,,,-99.99,6.000000,,2013-03-29 09:02:00,
2013-03-29 02:12:00,46.0,45.0,-100.00,North,8,0.0,0.0,95,0.00,,,-99.99,6.000000,,2013-03-29 09:12:00,
2013-03-29 02:43:00,46.0,45.0,-100.00,NE,43,0.0,0.0,95,0.00,,,-99.99,6.000000,,2013-03-29 09:43:00,
2013-03-29 02:52:00,46.0,45.0,-100.00,NE,43,0.0,0.0,95,0.00,,,-99.99,6.000000,,2013-03-29 09:52:00,
2013-03-29 03:02:00,46.0,45.0,-100.00,NE,43,0.0,0.0,95,0.00,,,-99.99,6.000000,,2013-03-29 10:02:00,
2013-03-29 03:12:00,46.0,45.0,-100.00,NE,43,0.0,0.0,95,0.00,,,-99.99,6.000000,,2013-03-29 10:12:00,
2013-03-29 03:33:00,46.0,44.0,-100.00,NE,40,0.0,3.0,94,0.00,,,-99.99,6.000000,,2013-03-29 10:33:00,
2013-03-29 03:42:00,46.0,44.0,-100.00,NE,40,0.0,3.0,94,0.00,,,-99.99,6.000000,,2013-03-29 10:42:00,
2013-03-29 03:53:00,46.0,44.0,-100.00,NE,40,0.0,3.0,94,0.00,,,-99.99,6.000000,,2013-03-29 10:53:00,
2013-03-29 04:03:00,46.0,44.0,-100.00,NE,40,0.0,3.0,94,0.00,,,-99.99,6.000000,,2013-03-29 11:03:00,
2013-03-29 04:12:00,46.0,44.0,-100.00,NE,40,0.0,3.0,94,0.00,,,-99.99,6.000000,,2013-03-29 11:12:00,
2013-03-29 04:33:00,46.0,43.0,-100.00,North,9,2.0,6.0,90,0.00,,,-99.99,6.000000,,2013-03-29 11:33:00,
2013-03-29 04:43:00,46.0,43.0,-100.00,North,9,2.0,6.0,90,0.00,,,-99.99,6.000000,,2013-03-29 11:43:00,
2013-03-29 04:52:00,46.0,43.0,-100.00,North,9,2.0,6.0,90,0.00,,,-99.99,6.000000,,2013-03-29 11:52:00,
2013-03-29 05:02:00,46.0,43.0,-100.00,North,9,2.0,6.0,90,0.00,,,-99.99,6.000000,,2013-03-29 12:02:00,
2013-03-29 05:12:00,46.0,43.0,-100.00,North,9,2.0,6.0,90,0.00,,,-99.99,6.000000,,2013-03-29 12:12:00,
2013-03-29 05:32:00,46.0,44.0,-100.00,NE,35,0.0,6.0,94,0.00,,,-99.99,6.000000,,2013-03-29 12:32:00,
2013-03-29 05:43:00,46.0,44.0,-100.00,NE,35,0.0,6.0,94,0.00,,,-99.99,6.000000,,2013-03-29 12:43:00,
2013-03-29 05:53:00,46.0,44.0,-100.00,NE,35,0.0,6.0,94,0.00,,,-99.99,6.000000,,2013-03-29 12:53:00,
2013-03-29 06:02:00,46.0,44.0,-100.00,NE,35,0.0,6.0,94,0.00,,,-99.99,6.000000,,2013-03-29 13:02:00,
2013-03-29 06:12:00,46.0,44.0,-100.00,NE,35,0.0,6.0,94,0.00,,,-99.99,6.000000,,2013-03-29 13:12:00,
2013-03-29 06:33:00,47.0,45.0,-100.00,ESE,120,0.0,0.0,94,0.00,,,-99.99,6.000000,,2013-03-29 13:33:00,
2013-03-29 06:43:00,47.0,45.0,-100.00,ESE,120,0.0,0.0,94,0.00,,,-99.99,6.000000,,2013-03-29 13:43:00,
2013-03-29 06:52:00,47.0,45.0,-100.00,ESE,120,0.0,0.0,94,0.00,,,-99.99,6.000000,,2013-03-29 13:52:00,
2013-03-29 07:02:00,47.0,45.0,-100.00,ESE,120,0.0,0.0,94,0.00,,,-99.99,6.000000,,2013-03-29 14:02:00,
2013-03-29 07:12:00,47.0,45.0,-100.00,ESE,120,0.0,0.0,94,0.00,,,-99.99,6.000000,,2013-03-29 14:12:00,
2013-03-29 07:33:00,45.0,44.0,-100.00,SSE,162,0.0,0.0,95,0.00,,,-99.99,8.000000,,2013-03-29 14:33:00,
2013-03-29 07:42:00,45.0,44.0,-100.00,SSE,162,0.0,0.0,95,0.00,,,-99.99,8.000000,,2013-03-29 14:42:00,
2013-03-29 07:52:00,45.0,44.0,-100.00,SSE,162,0.0,0.0,95,0.00,,,-99.99,8.000000,,2013-03-29 14:52:00,
2013-03-29 08:02:00,45.0,44.0,-100.00,SSE,162,0.0,0.0,95,0.00,,,-99.99,8.000000,,2013-03-29 15:02:00,
2013-03-29 08:11:00,45.0,44.0,-100.00,SSE,162,0.0,0.0,95,0.00,,,-99.99,8.000000,,2013-03-29 15:11:00,
2013-03-29 08:33:00,48.0,47.0,-100.00,NNW,341,0.0,2.0,95,0.00,,,-99.99,57.000000,,2013-03-29 15:33:00,
2013-03-29 08:43:00,48.0,47.0,-100.00,NNW,341,0.0,2.0,95,0.00,,,-99.99,57.000000,,2013-03-29 15:43:00,
2013-03-29 08:53:00,48.0,47.0,-100.00,NNW,341,0.0,2.0,95,0.00,,,-99.99,57.000000,,2013-03-29 15:53:00,
2013-03-29 09:03:00,48.0,47.0,-100.00,NNW,341,0.0,2.0,95,0.00,,,-99.99,57.000000,,2013-03-29 16:03:00,
2013-03-29 09:12:00,48.0,47.0,-100.00,NNW,341,0.0,2.0,95,0.00,,,-99.99,57.000000,,2013-03-29 16:12:00,
2013-03-29 09:33:00,55.0,45.0,-100.00,ENE,76,0.0,3.0,68,0.00,,,-99.99,213.000000,,2013-03-29 16:33:00,
2013-03-29 10:11:00,55.0,45.0,-100.00,ENE,76,0.0,3.0,68,0.00,,,-99.99,213.000000,,2013-03-29 17:11:00,
2013-03-29 10:43:00,55.0,43.0,-100.00,South,186,0.0,3.0,64,-99.99,,,-99.99,334.000000,,2013-03-29 17:43:00,
2013-03-29 10:52:00,55.0,43.0,-100.00,South,186,0.0,3.0,64,-99.99,,,-99.99,334.000000,,2013-03-29 17:52:00,
2013-03-29 11:02:00,55.0,43.0,-100.00,South,186,0.0,3.0,64,-99.99,,,-99.99,334.000000,,2013-03-29 18:02:00,
2013-03-29 11:12:00,55.0,43.0,-100.00,South,186,0.0,3.0,64,-99.99,,,-99.99,334.000000,,2013-03-29 18:12:00,
2013-03-29 11:43:00,60.0,41.0,-100.00,SSE,162,0.0,6.0,50,0.00,,,0.00,542.000000,,2013-03-29 18:43:00,
2013-03-29 11:52:00,60.0,41.0,-100.00,SSE,162,0.0,6.0,50,0.00,,,0.00,542.000000,,2013-03-29 18:52:00,
2013-03-29 12:02:00,60.0,41.0,-100.00,SSE,162,0.0,6.0,50,0.00,,,0.00,542.000000,,2013-03-29 19:02:00,
2013-03-29 12:12:00,60.0,41.0,-100.00,SSE,162,0.0,6.0,50,0.00,,,0.00,542.000000,,2013-03-29 19:12:00,
2013-03-29 12:33:00,64.0,44.0,-100.00,SSW,199,0.0,6.0,48,0.00,,,0.00,643.000000,,2013-03-29 19:33:00,
2013-03-29 13:12:00,64.0,44.0,-100.00,SSW,199,0.0,6.0,48,0.00,,,0.00,643.000000,,2013-03-29 20:12:00,
2013-03-29 13:42:00,62.0,46.0,-100.00,NNE,19,0.0,6.0,55,0.00,,,0.00,804.000000,,2013-03-29 20:42:00,
2013-03-29 13:52:00,62.0,46.0,-100.00,NNE,19,0.0,6.0,55,0.00,,,0.00,804.000000,,2013-03-29 20:52:00,
2013-03-29 14:02:00,62.0,46.0,-100.00,NNE,19,0.0,6.0,55,0.00,,,0.00,804.000000,,2013-03-29 21:02:00,
2013-03-29 14:11:00,62.0,46.0,-100.00,NNE,19,0.0,6.0,55,0.00,,,0.00,804.000000,,2013-03-29 21:11:00,
2013-03-29 14:43:00,64.0,47.0,-100.00,NNE,14,2.0,8.0,54,0.00,,,0.00,811.000000,,2013-03-29 21:43:00,
2013-03-29 14:53:00,64.0,47.0,-100.00,NNE,14,2.0,8.0,54,0.00,,,0.00,811.000000,,2013-03-29 21:53:00,
2013-03-29 15:03:00,64.0,47.0,-100.00,NNE,14,2.0,8.0,54,0.00,,,0.00,811.000000,,2013-03-29 22:03:00,
2013-03-29 15:12:00,64.0,47.0,-100.00,NNE,14,2.0,8.0,54,0.00,,,0.00,811.000000,,2013-03-29 22:12:00,
2013-03-29 15:33:00,65.0,47.0,-100.00,NW,317,1.0,8.0,53,0.00,,,0.00,811.000000,,2013-03-29 22:33:00,
2013-03-29 15:43:00,65.0,47.0,-100.00,NW,317,1.0,8.0,53,0.00,,,0.00,811.000000,,2013-03-29 22:43:00,
2013-03-29 15:53:00,65.0,47.0,-100.00,NW,317,1.0,8.0,53,0.00,,,0.00,811.000000,,2013-03-29 22:53:00,
2013-03-29 16:02:00,65.0,47.0,-100.00,NW,317,1.0,8.0,53,0.00,,,0.00,811.000000,,2013-03-29 23:02:00,
2013-03-29 16:12:00,65.0,47.0,-100.00,NW,317,1.0,8.0,53,0.00,,,0.00,811.000000,,2013-03-29 23:12:00,
2013-03-29 16:42:00,65.0,46.0,-100.00,North,7,3.0,7.0,51,0.00,,,0.00,752.000000,,2013-03-29 23:42:00,
2013-03-29 16:52:00,65.0,46.0,-100.00,North,7,3.0,7.0,51,0.00,,,0.00,752.000000,,2013-03-29 23:52:00,
2013-03-29 17:02:00,65.0,46.0,-100.00,North,7,3.0,7.0,51,0.00,,,0.00,752.000000,,2013-03-30 00:02:00,
2013-03-29 17:11:00,65.0,46.0,-100.00,North,7,3.0,7.0,51,0.00,,,0.00,752.000000,,2013-03-30 00:11:00,
2013-03-29 17:33:00,65.0,46.0,-100.00,North,355,2.0,9.0,51,0.00,,,-99.99,533.000000,,2013-03-30 00:33:00,
2013-03-29 17:43:00,65.0,46.0,-100.00,North,355,2.0,9.0,51,0.00,,,-99.99,533.000000,,2013-03-30 00:43:00,
2013-03-29 17:53:00,65.0,46.0,-100.00,North,355,2.0,9.0,51,0.00,,,-99.99,533.000000,,2013-03-30 00:53:00,
2013-03-29 18:12:00,65.0,46.0,-100.00,North,355,2.0,9.0,51,0.00,,,-99.99,533.000000,,2013-03-30 01:12:00,
2013-03-29 18:33:00,62.0,45.0,-100.00,North,349,1.0,7.0,53,0.00,,,0.00,369.000000,,2013-03-30 01:33:00,
2013-03-29 18:43:00,62.0,45.0,-100.00,North,349,1.0,7.0,53,0.00,,,0.00,369.000000,,2013-03-30 01:43:00,
2013-03-29 18:52:00,62.0,45.0,-100.00,North,349,1.0,7.0,53,0.00,,,0.00,369.000000,,2013-03-30 01:52:00,
2013-03-29 19:02:00,62.0,45.0,-100.00,North,349,1.0,7.0,53,0.00,,,0.00,369.000000,,2013-03-30 02:02:00,
2013-03-29 19:12:00,62.0,45.0,-100.00,North,349,1.0,7.0,53,0.00,,,0.00,369.000000,,2013-03-30 02:12:00,
2013-03-29 19:43:00,54.0,41.0,-100.00,North,1,3.0,7.0,61,0.00,,,0.00,55.000000,,2013-03-30 02:43:00,
2013-03-29 19:53:00,54.0,41.0,-100.00,North,1,3.0,7.0,61,0.00,,,0.00,55.000000,,2013-03-30 02:53:00,
2013-03-29 20:02:00,54.0,41.0,-100.00,North,1,3.0,7.0,61,0.00,,,0.00,55.000000,,2013-03-30 03:02:00,
2013-03-29 20:12:00,54.0,41.0,-100.00,North,1,3.0,7.0,61,0.00,,,0.00,55.000000,,2013-03-30 03:12:00,
2013-03-29 20:43:00,53.0,42.0,-100.00,North,357,4.0,8.0,65,0.00,,,0.00,14.000000,,2013-03-30 03:43:00,
2013-03-29 20:53:00,53.0,42.0,-100.00,North,357,4.0,8.0,65,0.00,,,0.00,14.000000,,2013-03-30 03:53:00,
2013-03-29 21:02:00,53.0,42.0,-100.00,North,357,4.0,8.0,65,0.00,,,0.00,14.000000,,2013-03-30 04:02:00,
2013-03-29 21:12:00,53.0,42.0,-100.00,North,357,4.0,8.0,65,0.00,,,0.00,14.000000,,2013-03-30 04:12:00,
2013-03-29 21:33:00,51.0,39.0,-100.00,North,2,4.0,8.0,64,0.00,,,0.00,8.000000,,2013-03-30 04:33:00,
2013-03-29 21:43:00,51.0,39.0,-100.00,North,2,4.0,8.0,64,0.00,,,0.00,8.000000,,2013-03-30 04:43:00,
2013-03-29 21:53:00,51.0,39.0,-100.00,North,2,4.0,8.0,64,0.00,,,0.00,8.000000,,2013-03-30 04:53:00,
2013-03-29 22:02:00,51.0,39.0,-100.00,North,2,4.0,8.0,64,0.00,,,0.00,8.000000,,2013-03-30 05:02:00,
2013-03-29 22:12:00,51.0,39.0,-100.00,North,2,4.0,8.0,64,0.00,,,0.00,8.000000,,2013-03-30 05:12:00,
2013-03-29 22:32:00,52.0,41.0,-100.00,North,0,4.0,7.0,66,0.00,,,0.00,7.000000,,2013-03-30 05:32:00,
2013-03-29 22:42:00,52.0,41.0,-100.00,North,0,4.0,7.0,66,0.00,,,0.00,7.000000,,2013-03-30 05:42:00,
2013-03-29 22:52:00,52.0,41.0,-100.00,North,0,4.0,7.0,66,0.00,,,0.00,7.000000,,2013-03-30 05:52:00,
2013-03-29 23:02:00,52.0,41.0,-100.00,North,0,4.0,7.0,66,0.00,,,0.00,7.000000,,2013-03-30 06:02:00,
2013-03-29 23:11:00,52.0,41.0,-100.00,North,0,4.0,7.0,66,0.00,,,0.00,7.000000,,2013-03-30 06:11:00,
2013-03-29 23:42:00,50.0,39.0,-100.00,North,2,5.0,9.0,67,0.00,,,0.00,7.000000,,2013-03-30 06:42:00,
2013-03-29 23:52:00,50.0,39.0,-100.00,North,2,5.0,9.0,67,0.00,,,0.00,7.000000,,2013-03-30 06:52:00,